Terminal Aerodrome Forecast
Issued by NWS

Home | Current Version | Previous Version | Text Only | Print | Product List | Glossary On
Versions: 1 2 3 4 5 6 7 8 9 10 11 12 13 14 15 16 17 18 19 20 21 22 23 24 25 26 27 28 29 30
000
FTUS42 KMFL 231742
TAFMIA
TAF
KMIA 231742Z 2318/2418 15010KT P6SM -SHRA SCT015 BKN040 OVC060
      TEMPO 2318/2319 VRB15KT 3SM TSRA SCT005CB BKN015
     FM232000 24010KT P6SM VCSH FEW015 SCT030 BKN120
     FM240200 VRB05KT P6SM FEW010 SCT025
     FM241400 28011KT P6SM SCT050=

USA.gov is the U.S. government's official web portal to all federal, state and local government web resources and services.